Terminal Aerodrome Forecast
Issued by NWS

Home | Current Version | Previous Version | Text Only | Print | Product List | Glossary On
Versions: 1 2 3 4 5 6 7 8 9 10 11 12 13 14 15 16 17 18 19 20 21 22
000
FTUS43 KLSX 290500
TAFSUS
TAF
KSUS 290520Z 2906/3006 VRB04KT 6SM BR SCT120 BKN250
      TEMPO 2908/2912 4SM BR
     FM291500 18007KT P6SM SCT035 BKN120
     FM292100 18009KT P6SM VCTS SCT045CB BKN120
     FM300300 20006KT P6SM SCT050 BKN120=

USA.gov is the U.S. government's official web portal to all federal, state and local government web resources and services.